Time;durP1;ratioP1;P1;durP2;ratioP2;P2;SDS_P1;SDS_P2;PMS_P1;PMS_P2;Temp;Humidity;BMP_temperature;BMP_pressure;BME280_temperature;BME280_humidity;BME280_pressure;Samples;Min_cycle;Max_cycle;Signal;HPM_P1;HPM_P2
2021/09/02 00:00:19;;;;;;;9.27;6.32;;;20.80;99.90;;;;;;4392550;32;20100;-74
2021/09/02 00:02:46;;;;;;;9.85;5.80;;;20.80;99.90;;;;;;4380432;32;20089;-73
2021/09/02 00:05:12;;;;;;;10.40;5.97;;;20.80;99.90;;;;;;4393143;32;20500;-74
2021/09/02 00:07:38;;;;;;;11.93;6.03;;;20.90;99.90;;;;;;4405206;32;20444;-74
2021/09/02 00:10:05;;;;;;;12.85;6.00;;;20.90;99.90;;;;;;4392835;32;20081;-73
2021/09/02 00:12:31;;;;;;;10.80;6.70;;;20.80;99.90;;;;;;4405360;32;20120;-74
2021/09/02 00:14:57;;;;;;;9.23;5.50;;;20.80;99.90;;;;;;4406223;32;20077;-74
2021/09/02 00:17:23;;;;;;;8.80;6.18;;;20.80;99.90;;;;;;4393446;32;20112;-74
2021/09/02 00:19:49;;;;;;;11.05;6.87;;;20.80;99.90;;;;;;4367963;32;20077;-73
2021/09/02 00:22:16;;;;;;;12.63;6.82;;;20.80;99.90;;;;;;4405141;32;20515;-74
2021/09/02 00:24:42;;;;;;;10.75;7.25;;;20.70;99.90;;;;;;4392909;32;20637;-74
2021/09/02 00:27:08;;;;;;;12.65;6.95;;;20.70;99.90;;;;;;4405430;32;20157;-74
2021/09/02 00:29:34;;;;;;;11.20;7.07;;;20.70;99.90;;;;;;4405368;32;20130;-74
2021/09/02 00:32:00;;;;;;;15.77;8.63;;;20.70;99.90;;;;;;4393123;32;20075;-74
2021/09/02 00:34:26;;;;;;;14.48;8.70;;;20.70;99.90;;;;;;4380184;32;20089;-73
2021/09/02 00:36:52;;;;;;;13.80;7.45;;;20.70;99.90;;;;;;4392673;32;20157;-73
2021/09/02 00:39:18;;;;;;;11.68;7.10;;;20.60;99.90;;;;;;4405208;32;20077;-71
2021/09/02 00:41:44;;;;;;;11.85;7.72;;;20.60;99.90;;;;;;4392796;32;20101;-74
2021/09/02 00:44:11;;;;;;;13.05;7.57;;;20.60;99.90;;;;;;4406506;32;20070;-74
2021/09/02 00:46:37;;;;;;;14.77;7.20;;;20.50;99.90;;;;;;4406980;32;20077;-74
2021/09/02 00:49:03;;;;;;;13.80;7.68;;;20.60;99.90;;;;;;4405316;32;20081;-74
2021/09/02 00:51:29;;;;;;;14.02;7.60;;;20.50;99.90;;;;;;4392068;32;20246;-73
2021/09/02 00:53:56;;;;;;;13.80;7.70;;;20.60;99.90;;;;;;4380127;32;20131;-73
2021/09/02 00:56:26;;;;;;;10.52;7.53;;;20.50;99.90;;;;;;4380652;32;20073;-73
2021/09/02 00:58:52;;;;;;;13.88;7.43;;;20.60;99.90;;;;;;4368439;32;20165;-73
2021/09/02 01:01:19;;;;;;;10.07;7.20;;;20.50;99.90;;;;;;4392305;32;20076;-74
2021/09/02 01:03:48;;;;;;;12.50;6.75;;;20.40;99.90;;;;;;4392583;32;20081;-73
2021/09/02 01:06:15;;;;;;;10.63;6.60;;;20.40;99.90;;;;;;4405058;32;20519;-73
2021/09/02 01:08:41;;;;;;;11.43;7.60;;;20.40;99.90;;;;;;4367482;32;20073;-74
2021/09/02 01:11:07;;;;;;;14.77;7.35;;;20.40;99.90;;;;;;4392500;32;20204;-74
2021/09/02 01:13:33;;;;;;;11.70;6.95;;;20.40;99.90;;;;;;4394103;32;20533;-74
2021/09/02 01:16:00;;;;;;;9.20;6.43;;;20.30;99.90;;;;;;4395420;32;20088;-73
2021/09/02 01:18:26;;;;;;;10.90;6.75;;;20.30;99.90;;;;;;4395414;32;20162;-74
2021/09/02 01:20:52;;;;;;;14.25;7.30;;;20.20;99.90;;;;;;4409245;32;20070;-74
2021/09/02 01:23:22;;;;;;;11.10;7.12;;;20.20;99.90;;;;;;4407764;32;20529;-73
2021/09/02 01:25:48;;;;;;;9.35;6.35;;;20.20;99.90;;;;;;4382968;32;20078;-74
2021/09/02 01:28:15;;;;;;;14.48;6.95;;;20.20;99.90;;;;;;4407949;32;20077;-74
2021/09/02 01:30:42;;;;;;;10.00;6.68;;;20.20;99.90;;;;;;4395422;32;20524;-74
2021/09/02 01:33:09;;;;;;;10.88;7.75;;;20.10;99.90;;;;;;4383028;32;20085;-73
2021/09/02 01:35:35;;;;;;;10.85;7.05;;;20.20;99.90;;;;;;4395199;32;20088;-74
2021/09/02 01:38:05;;;;;;;14.10;7.10;;;20.20;99.90;;;;;;4409278;32;20069;-74
2021/09/02 01:40:40;;;;;;;12.70;7.18;;;20.30;99.90;;;;;;4370865;32;20073;-73
2021/09/02 01:43:07;;;;;;;13.00;7.15;;;20.30;99.90;;;;;;4371413;32;20115;-74
2021/09/02 01:45:35;;;;;;;12.95;6.60;;;20.20;99.90;;;;;;4383435;32;20525;-74
2021/09/02 01:48:02;;;;;;;14.30;7.65;;;20.00;99.90;;;;;;4408963;32;20488;-74
2021/09/02 01:50:30;;;;;;;11.63;7.15;;;20.00;99.90;;;;;;4408862;32;20085;-74
2021/09/02 01:52:57;;;;;;;10.15;6.68;;;20.10;99.90;;;;;;4394806;32;20527;-73
2021/09/02 01:55:24;;;;;;;11.40;7.10;;;20.10;99.90;;;;;;4395356;32;20107;-73
2021/09/02 01:57:51;;;;;;;13.55;8.13;;;20.20;99.90;;;;;;4407530;32;20195;-74
2021/09/02 02:00:18;;;;;;;14.07;7.03;;;20.20;99.90;;;;;;4370275;32;20085;-73
2021/09/02 02:02:44;;;;;;;11.80;7.45;;;20.20;99.90;;;;;;4394752;32;20115;-73
2021/09/02 02:05:11;;;;;;;14.87;7.62;;;20.30;99.90;;;;;;4395473;32;20100;-74
2021/09/02 02:07:38;;;;;;;14.70;7.75;;;20.30;99.90;;;;;;4395268;32;20078;-73
2021/09/02 02:10:05;;;;;;;11.75;7.10;;;20.40;99.90;;;;;;4381956;32;20482;-74
2021/09/02 02:12:32;;;;;;;10.10;7.47;;;20.40;99.90;;;;;;4382618;32;20062;-73
2021/09/02 02:14:58;;;;;;;12.07;7.15;;;20.40;99.90;;;;;;4382539;32;20156;-74
2021/09/02 02:17:24;;;;;;;13.90;7.32;;;20.40;99.90;;;;;;4407149;32;20511;-73
2021/09/02 02:19:50;;;;;;;12.55;7.60;;;20.40;99.90;;;;;;4394478;32;20065;-74
2021/09/02 02:22:16;;;;;;;13.38;7.47;;;20.30;99.90;;;;;;4407060;32;20086;-74
2021/09/02 02:24:42;;;;;;;11.93;7.00;;;20.30;99.90;;;;;;4393709;32;20488;-73
2021/09/02 02:27:08;;;;;;;11.15;7.00;;;20.30;99.90;;;;;;4394465;32;20512;-74
2021/09/02 02:29:35;;;;;;;9.07;7.05;;;20.30;99.90;;;;;;4394459;32;20082;-74
2021/09/02 02:32:01;;;;;;;13.20;7.40;;;20.40;99.90;;;;;;4381675;32;20457;-74
2021/09/02 02:34:27;;;;;;;14.30;7.22;;;20.20;99.90;;;;;;4394504;32;20512;-73
2021/09/02 02:36:53;;;;;;;10.00;6.85;;;20.20;99.90;;;;;;4408193;32;20543;-74
2021/09/02 02:39:19;;;;;;;11.30;7.22;;;20.30;99.90;;;;;;4381966;32;20508;-74
2021/09/02 02:41:45;;;;;;;12.35;6.95;;;20.30;99.90;;;;;;4381772;32;20085;-74
2021/09/02 02:44:12;;;;;;;11.57;6.60;;;20.30;99.90;;;;;;4381733;32;20164;-74
2021/09/02 02:46:38;;;;;;;17.42;7.07;;;20.40;99.90;;;;;;4393834;32;20076;-73
2021/09/02 02:49:04;;;;;;;12.48;7.60;;;20.40;99.90;;;;;;4406794;32;20088;-73
2021/09/02 02:51:30;;;;;;;13.82;8.05;;;20.40;99.90;;;;;;4381127;32;20216;-73
2021/09/02 02:53:56;;;;;;;11.90;7.20;;;20.40;99.90;;;;;;4381115;32;20490;-73
2021/09/02 02:56:22;;;;;;;11.68;7.53;;;20.40;99.90;;;;;;4394278;32;20165;-73
2021/09/02 02:58:49;;;;;;;12.48;7.75;;;20.50;99.90;;;;;;4394027;32;20079;-74
2021/09/02 03:01:15;;;;;;;10.15;7.37;;;20.50;99.90;;;;;;4394053;32;20086;-73
2021/09/02 03:03:41;;;;;;;10.32;7.18;;;20.50;99.90;;;;;;4394247;32;20247;-74
2021/09/02 03:06:09;;;;;;;14.52;7.25;;;20.50;99.90;;;;;;4394334;32;20173;-74
2021/09/02 03:08:35;;;;;;;11.05;7.65;;;20.60;99.90;;;;;;4406522;32;20085;-74
2021/09/02 03:11:01;;;;;;;11.40;7.43;;;20.50;99.90;;;;;;4408001;32;20086;-74
2021/09/02 03:13:27;;;;;;;12.63;7.62;;;20.50;99.90;;;;;;4406505;32;20084;-74
2021/09/02 03:15:53;;;;;;;15.38;8.35;;;20.50;99.90;;;;;;4393733;32;20101;-73
2021/09/02 03:18:19;;;;;;;10.80;7.72;;;20.50;99.90;;;;;;4405966;32;20456;-74
2021/09/02 03:20:46;;;;;;;13.00;8.10;;;20.50;99.90;;;;;;4408259;32;20126;-73
2021/09/02 03:23:12;;;;;;;12.40;7.90;;;20.50;99.90;;;;;;4406539;32;20062;-73
2021/09/02 03:25:38;;;;;;;12.32;7.40;;;20.60;99.90;;;;;;4393466;32;20129;-73
2021/09/02 03:28:04;;;;;;;12.07;7.32;;;20.60;99.90;;;;;;4407550;32;20092;-73
2021/09/02 03:30:30;;;;;;;12.85;7.85;;;20.60;99.90;;;;;;4406069;32;20098;-74
2021/09/02 03:32:56;;;;;;;15.35;7.93;;;20.60;99.90;;;;;;4393421;32;20100;-74
2021/09/02 03:35:22;;;;;;;10.93;7.95;;;20.70;99.90;;;;;;4380300;32;20084;-74
2021/09/02 03:37:49;;;;;;;12.60;7.85;;;20.60;99.90;;;;;;4393754;32;20083;-73
2021/09/02 03:40:15;;;;;;;13.77;7.45;;;20.60;99.90;;;;;;4405691;32;20077;-73
2021/09/02 03:42:41;;;;;;;11.60;7.60;;;20.70;99.90;;;;;;4405919;32;20085;-72
2021/09/02 03:45:08;;;;;;;11.65;7.40;;;20.70;99.90;;;;;;4380535;32;20483;-74
2021/09/02 03:47:35;;;;;;;12.52;8.43;;;20.70;99.90;;;;;;4380949;32;20100;-74
2021/09/02 03:50:02;;;;;;;9.90;7.15;;;20.70;99.90;;;;;;4381756;32;20074;-75
2021/09/02 03:52:29;;;;;;;13.60;8.00;;;20.70;99.90;;;;;;4392692;32;20077;-74
2021/09/02 03:54:55;;;;;;;12.93;8.43;;;20.80;99.90;;;;;;4393696;32;20151;-74
2021/09/02 03:57:21;;;;;;;10.93;7.47;;;20.80;99.90;;;;;;4368350;32;20093;-74
2021/09/02 03:59:47;;;;;;;12.02;8.38;;;20.70;99.90;;;;;;4392825;32;20460;-73
2021/09/02 04:02:13;;;;;;;14.68;8.65;;;20.70;99.90;;;;;;4405915;32;20079;-74
2021/09/02 04:04:39;;;;;;;12.88;8.10;;;20.90;99.90;;;;;;4380752;32;20447;-74
2021/09/02 04:07:06;;;;;;;11.98;7.68;;;20.80;99.90;;;;;;4368589;32;20200;-74
2021/09/02 04:09:33;;;;;;;13.20;7.90;;;20.90;99.90;;;;;;4392856;32;20088;-74
2021/09/02 04:11:59;;;;;;;14.15;8.30;;;21.10;99.90;;;;;;4393474;32;20065;-72
2021/09/02 04:14:25;;;;;;;15.32;8.13;;;21.00;99.90;;;;;;4380265;32;20088;-74
2021/09/02 04:16:54;;;;;;;11.15;7.10;;;21.00;99.90;;;;;;4367950;32;20074;-73
2021/09/02 04:19:22;;;;;;;12.75;7.75;;;21.00;99.90;;;;;;4405624;32;20165;-74
2021/09/02 04:21:48;;;;;;;12.65;7.55;;;21.30;99.90;;;;;;4405826;32;20084;-74
2021/09/02 04:24:14;;;;;;;9.50;6.82;;;21.30;99.90;;;;;;4405608;32;20070;-72
2021/09/02 04:26:40;;;;;;;14.65;8.18;;;21.20;99.90;;;;;;4405294;32;20070;-73
2021/09/02 04:29:06;;;;;;;15.90;8.63;;;21.30;99.90;;;;;;4380763;32;20151;-73
2021/09/02 04:31:33;;;;;;;10.93;7.22;;;21.30;99.90;;;;;;4392983;32;20096;-74
2021/09/02 04:33:59;;;;;;;12.43;7.82;;;21.50;99.90;;;;;;4392557;32;20508;-74
2021/09/02 04:36:25;;;;;;;11.38;7.87;;;21.50;99.90;;;;;;4380127;32;20077;-74
2021/09/02 04:38:51;;;;;;;10.32;7.07;;;21.70;99.90;;;;;;4379910;32;20090;-74
2021/09/02 04:41:17;;;;;;;13.32;7.03;;;21.70;99.90;;;;;;4392095;32;20550;-74
2021/09/02 04:43:43;;;;;;;12.35;7.32;;;21.90;99.90;;;;;;4392944;32;20076;-73
2021/09/02 04:46:12;;;;;;;12.80;7.95;;;22.00;99.90;;;;;;4405411;32;20074;-74
2021/09/02 04:48:39;;;;;;;13.07;6.87;;;21.80;99.90;;;;;;4380551;32;20073;-74
2021/09/02 04:51:05;;;;;;;12.77;7.10;;;21.90;99.90;;;;;;4404997;32;20157;-72
2021/09/02 04:53:31;;;;;;;11.90;7.15;;;21.80;99.90;;;;;;4368116;32;20073;-73
2021/09/02 04:55:57;;;;;;;11.80;7.50;;;21.80;99.90;;;;;;4392385;32;20511;-73
2021/09/02 04:58:23;;;;;;;15.07;7.57;;;21.80;99.90;;;;;;4405618;32;20090;-72
2021/09/02 05:00:49;;;;;;;12.30;6.87;;;22.00;99.90;;;;;;4379905;32;20103;-72
2021/09/02 05:03:15;;;;;;;12.90;7.50;;;22.10;99.90;;;;;;4392658;32;20081;-73
2021/09/02 05:05:42;;;;;;;13.48;6.90;;;22.20;99.90;;;;;;4405183;32;20145;-74
2021/09/02 05:08:08;;;;;;;12.05;6.10;;;22.10;99.90;;;;;;4380023;32;20066;-72
2021/09/02 05:10:34;;;;;;;9.85;6.45;;;22.00;99.90;;;;;;4392519;32;20234;-73
2021/09/02 05:13:00;;;;;;;9.73;6.10;;;22.10;99.90;;;;;;4392222;32;20105;-73
2021/09/02 05:15:26;;;;;;;10.20;6.20;;;22.10;99.90;;;;;;4367368;32;20085;-74
2021/09/02 05:17:53;;;;;;;10.82;6.28;;;22.10;99.90;;;;;;4392520;32;20099;-73
2021/09/02 05:20:19;;;;;;;14.02;5.22;;;21.90;99.90;;;;;;4404852;32;20141;-73
2021/09/02 05:22:45;;;;;;;9.93;5.78;;;22.20;99.90;;;;;;4405090;32;20078;-73
2021/09/02 05:25:12;;;;;;;7.78;5.47;;;22.10;99.90;;;;;;4380243;32;20072;-73
2021/09/02 05:27:38;;;;;;;9.77;5.55;;;22.30;99.90;;;;;;4392315;32;20081;-74
2021/09/02 05:30:07;;;;;;;11.75;7.32;;;22.50;99.90;;;;;;4367535;32;20084;-75
2021/09/02 05:32:33;;;;;;;10.55;7.07;;;22.30;99.90;;;;;;4392320;32;20093;-73
2021/09/02 05:34:59;;;;;;;14.52;6.37;;;22.10;99.90;;;;;;4367237;32;20160;-74
2021/09/02 05:37:25;;;;;;;9.70;6.07;;;22.60;99.90;;;;;;4379943;32;20074;-74
2021/09/02 05:39:52;;;;;;;11.30;6.82;;;22.80;99.90;;;;;;4379455;32;20459;-72
2021/09/02 05:42:18;;;;;;;11.12;7.03;;;22.60;99.90;;;;;;4404808;32;20077;-75
2021/09/02 05:44:44;;;;;;;11.35;7.10;;;22.40;99.90;;;;;;4367031;32;20504;-74
2021/09/02 05:47:10;;;;;;;12.63;7.72;;;22.10;99.90;;;;;;4379918;32;20078;-73
2021/09/02 05:49:36;;;;;;;10.77;7.28;;;22.20;99.90;;;;;;4367243;32;20080;-74
2021/09/02 05:52:03;;;;;;;10.52;6.93;;;22.10;99.90;;;;;;4366733;32;20504;-73
2021/09/02 05:54:29;;;;;;;11.27;7.30;;;22.30;99.90;;;;;;4392246;32;20073;-74
2021/09/02 05:56:55;;;;;;;13.25;7.72;;;22.10;99.90;;;;;;4391976;32;20088;-73
2021/09/02 05:59:21;;;;;;;12.88;7.60;;;22.20;99.90;;;;;;4380864;32;20085;-74
2021/09/02 06:01:48;;;;;;;10.32;6.53;;;22.30;99.90;;;;;;4394862;32;20088;-74
2021/09/02 06:04:14;;;;;;;9.10;6.43;;;22.50;99.90;;;;;;4395132;32;20540;-74
2021/09/02 06:06:40;;;;;;;13.82;6.70;;;22.60;99.90;;;;;;4394923;32;20068;-74
2021/09/02 06:09:09;;;;;;;9.38;6.57;;;22.90;99.90;;;;;;4407131;32;20459;-75
2021/09/02 06:11:36;;;;;;;10.38;6.25;;;23.10;99.90;;;;;;4407694;32;20231;-74
2021/09/02 06:14:02;;;;;;;10.05;6.35;;;23.30;99.90;;;;;;4369998;32;20074;-73
2021/09/02 06:16:29;;;;;;;9.65;6.28;;;23.30;99.90;;;;;;4382616;32;20157;-74
2021/09/02 06:18:55;;;;;;;11.85;6.10;;;23.30;99.90;;;;;;4381688;32;20162;-74
2021/09/02 06:21:21;;;;;;;9.50;6.47;;;23.50;98.80;;;;;;4382611;32;20476;-74
2021/09/02 06:23:47;;;;;;;11.25;6.60;;;23.50;99.10;;;;;;4382273;32;20080;-74
2021/09/02 06:26:13;;;;;;;11.35;6.12;;;23.50;98.50;;;;;;4381694;32;20448;-74
2021/09/02 06:28:39;;;;;;;10.70;6.18;;;23.30;98.50;;;;;;4394318;32;20073;-73
2021/09/02 06:31:06;;;;;;;10.30;6.32;;;23.20;97.20;;;;;;4406766;32;20119;-73
2021/09/02 06:33:33;;;;;;;7.72;5.07;;;23.00;96.90;;;;;;4381932;32;20097;-74
2021/09/02 06:35:59;;;;;;;9.40;6.45;;;22.90;92.40;;;;;;4408398;32;20154;-73
2021/09/02 06:38:26;;;;;;;9.77;5.78;;;23.20;97.00;;;;;;4394197;32;20077;-74
2021/09/02 06:40:52;;;;;;;7.93;5.50;;;23.40;94.00;;;;;;4406811;32;20088;-74
2021/09/02 06:43:18;;;;;;;9.73;5.93;;;23.80;91.20;;;;;;4382037;32;20165;-75
2021/09/02 06:45:44;;;;;;;8.05;5.47;;;24.10;89.70;;;;;;4394017;32;20596;-74
2021/09/02 06:48:10;;;;;;;7.97;5.72;;;24.00;91.50;;;;;;4381626;32;20102;-73
2021/09/02 06:50:36;;;;;;;17.98;8.25;;;23.90;91.90;;;;;;4381532;32;20105;-73
2021/09/02 06:53:02;;;;;;;8.57;6.32;;;23.70;91.20;;;;;;4394326;32;20069;-74
2021/09/02 06:55:29;;;;;;;8.52;5.65;;;23.60;88.70;;;;;;4381784;32;20091;-75
2021/09/02 06:57:55;;;;;;;9.48;5.85;;;23.60;90.20;;;;;;4406666;32;20080;-73
2021/09/02 07:00:21;;;;;;;9.32;5.78;;;23.60;91.20;;;;;;4381435;32;20522;-73
2021/09/02 07:02:47;;;;;;;9.82;6.32;;;23.80;91.40;;;;;;4381410;32;20078;-75
2021/09/02 07:05:13;;;;;;;10.02;6.03;;;23.70;86.80;;;;;;4393748;32;20101;-73
2021/09/02 07:07:40;;;;;;;10.60;6.18;;;23.80;90.00;;;;;;4393972;32;20140;-73
2021/09/02 07:10:07;;;;;;;12.02;6.20;;;23.90;87.20;;;;;;4393794;32;20081;-75
2021/09/02 07:12:33;;;;;;;8.63;5.90;;;24.00;84.60;;;;;;4393392;32;20138;-72
2021/09/02 07:14:59;;;;;;;7.90;5.12;;;24.20;78.00;;;;;;4393496;32;20483;-73
2021/09/02 07:17:25;;;;;;;8.65;6.07;;;24.10;78.70;;;;;;4393722;32;20137;-73
2021/09/02 07:19:52;;;;;;;10.90;6.53;;;23.70;80.40;;;;;;4394046;32;20069;-72
2021/09/02 07:22:18;;;;;;;9.50;5.62;;;23.90;78.90;;;;;;4393911;32;20090;-72
2021/09/02 07:24:44;;;;;;;7.95;5.55;;;23.90;75.20;;;;;;4406417;32;20178;-73
2021/09/02 07:27:10;;;;;;;12.32;5.55;;;23.80;77.60;;;;;;4380708;32;20592;-72
2021/09/02 07:29:36;;;;;;;9.07;5.35;;;23.50;75.30;;;;;;4380805;32;20150;-72
2021/09/02 07:32:03;;;;;;;7.75;5.37;;;23.90;76.80;;;;;;4380472;32;20073;-73
2021/09/02 07:34:29;;;;;;;8.98;5.78;;;24.40;71.90;;;;;;4405856;32;20078;-73
2021/09/02 07:36:57;;;;;;;8.27;5.43;;;24.20;68.70;;;;;;4380906;32;20076;-73
2021/09/02 07:39:23;;;;;;;8.77;5.75;;;23.90;67.10;;;;;;4393563;32;20084;-76
2021/09/02 07:41:50;;;;;;;12.13;5.85;;;24.00;69.80;;;;;;4393239;32;20081;-78
2021/09/02 07:44:16;;;;;;;8.52;5.00;;;24.20;70.30;;;;;;4368246;32;20094;-75
2021/09/02 07:46:42;;;;;;;8.40;5.00;;;24.30;68.60;;;;;;4392953;32;20160;-74
2021/09/02 07:49:08;;;;;;;7.55;5.18;;;24.20;61.80;;;;;;4393587;32;20165;-74
2021/09/02 07:51:34;;;;;;;8.55;5.85;;;24.70;63.80;;;;;;4387915;32;20263;-73
2021/09/02 07:54:00;;;;;;;10.88;5.97;;;24.40;66.70;;;;;;4392316;32;20108;-75
2021/09/02 07:56:26;;;;;;;10.30;5.87;;;24.20;63.40;;;;;;4398578;32;20124;-67
2021/09/02 07:58:53;;;;;;;7.37;5.28;;;23.80;67.80;;;;;;4363611;32;20081;-68
2021/09/02 08:01:22;;;;;;;8.85;6.07;;;23.80;68.00;;;;;;4362313;32;20101;-69
2021/09/02 08:03:49;;;;;;;8.63;5.28;;;23.90;68.00;;;;;;4384846;32;20074;-69
2021/09/02 08:06:16;;;;;;;9.85;5.78;;;23.80;69.60;;;;;;4372575;32;20090;-69
2021/09/02 08:08:42;;;;;;;8.45;5.07;;;23.80;68.60;;;;;;4380931;32;20076;-75
2021/09/02 08:11:08;;;;;;;8.68;4.85;;;23.80;61.00;;;;;;4366282;32;20069;-73
2021/09/02 08:13:34;;;;;;;9.18;4.75;;;23.70;59.50;;;;;;4364609;32;20065;-66
2021/09/02 08:16:01;;;;;;;6.68;4.78;;;23.90;60.30;;;;;;4370777;32;20093;-69
2021/09/02 08:18:27;;;;;;;6.72;4.53;;;23.90;59.50;;;;;;4377911;32;20513;-67
2021/09/02 08:20:54;;;;;;;7.32;4.43;;;23.90;59.30;;;;;;4387465;32;20113;-68
2021/09/02 08:23:21;;;;;;;6.72;4.87;;;24.00;57.50;;;;;;4383912;32;20066;-69
2021/09/02 08:25:47;;;;;;;6.90;4.70;;;23.80;58.40;;;;;;4375658;32;20070;-69
2021/09/02 08:28:15;;;;;;;7.05;4.28;;;23.50;58.40;;;;;;4366498;32;20116;-71
2021/09/02 08:30:41;;;;;;;9.88;5.28;;;23.60;56.90;;;;;;4380269;32;20068;-71
2021/09/02 08:33:07;;;;;;;6.50;4.60;;;23.80;56.70;;;;;;4391211;32;20092;-69
2021/09/02 08:35:34;;;;;;;9.00;5.10;;;23.80;57.20;;;;;;4388497;32;20073;-77
2021/09/02 08:38:03;;;;;;;7.05;4.85;;;23.80;60.00;;;;;;4387854;32;20067;-72
2021/09/02 08:40:32;;;;;;;7.78;5.12;;;23.70;57.90;;;;;;4362896;32;20113;-72
2021/09/02 08:42:59;;;;;;;6.85;4.53;;;24.00;57.70;;;;;;4379279;32;20093;-64
2021/09/02 08:45:26;;;;;;;7.70;4.53;;;23.50;57.20;;;;;;4384766;32;20181;-70
2021/09/02 08:47:52;;;;;;;6.18;4.53;;;23.50;56.90;;;;;;4368837;32;20489;-69
2021/09/02 08:50:23;;;;;;;9.23;5.18;;;23.50;58.40;;;;;;4390922;32;20077;-68
2021/09/02 08:52:50;;;;;;;10.07;5.50;;;23.60;57.30;;;;;;4358238;32;20197;-73
2021/09/02 08:55:17;;;;;;;6.40;4.30;;;23.90;56.40;;;;;;4378445;32;20170;-73
2021/09/02 08:57:44;;;;;;;8.75;4.87;;;23.80;56.60;;;;;;4393542;32;20081;-76
2021/09/02 09:00:11;;;;;;;6.87;4.72;;;23.70;57.00;;;;;;4377579;32;20093;-78
2021/09/02 09:02:45;;;;;;;13.25;5.05;;;23.70;56.60;;;;;;4376930;32;20120;-78
2021/09/02 09:05:14;;;;;;;8.57;4.65;;;23.40;56.70;;;;;;4357680;32;20540;-75
2021/09/02 09:07:42;;;;;;;6.12;4.32;;;23.50;55.80;;;;;;4372844;32;20085;-72
2021/09/02 09:10:17;;;;;;;5.87;4.65;;;23.40;57.80;;;;;;4369558;32;20174;-73
2021/09/02 09:12:56;;;;;;;6.32;4.82;;;23.60;56.30;;;;;;4387425;32;20074;-73
2021/09/02 09:15:40;;;;;;;7.82;4.97;;;23.80;54.80;;;;;;4374943;32;20158;-68
2021/09/02 09:18:24;;;;;;;8.13;4.82;;;23.60;55.50;;;;;;4378295;32;20243;-70
2021/09/02 09:21:11;;;;;;;6.57;4.90;;;23.60;55.10;;;;;;4377308;32;20165;-71
2021/09/02 09:23:58;;;;;;;6.82;4.68;;;23.80;54.20;;;;;;4371458;32;20077;-71
2021/09/02 09:26:26;;;;;;;7.32;4.60;;;23.70;53.60;;;;;;4378025;32;20113;-70
2021/09/02 09:28:55;;;;;;;7.18;4.80;;;23.50;54.40;;;;;;4352340;32;20088;-71
2021/09/02 09:31:34;;;;;;;6.20;4.37;;;23.60;54.10;;;;;;4378302;32;20177;-76
2021/09/02 09:34:04;;;;;;;8.40;5.15;;;23.60;54.10;;;;;;4385500;32;20085;-79
2021/09/02 09:36:32;;;;;;;6.65;4.80;;;23.70;53.70;;;;;;4372678;32;20096;-70
2021/09/02 09:39:10;;;;;;;8.15;5.22;;;23.70;53.60;;;;;;4373718;32;20066;-78
2021/09/02 09:41:45;;;;;;;7.30;4.25;;;23.40;54.00;;;;;;4373925;32;20686;-65
2021/09/02 09:44:22;;;;;;;6.18;4.35;;;23.40;53.40;;;;;;4376843;32;20072;-69
2021/09/02 09:47:17;;;;;;;5.75;4.25;;;23.30;54.50;;;;;;4376030;32;20066;-72
2021/09/02 09:49:55;;;;;;;8.57;4.10;;;23.40;54.40;;;;;;4377966;32;21068;-76
2021/09/02 09:52:29;;;;;;;7.68;5.00;;;23.60;54.60;;;;;;4375547;32;20082;-74
2021/09/02 09:55:09;;;;;;;6.62;4.60;;;23.90;53.90;;;;;;4380564;32;20074;-75
2021/09/02 09:57:36;;;;;;;8.10;4.90;;;23.90;53.50;;;;;;4371815;32;20066;-74
2021/09/02 10:00:16;;;;;;;6.97;4.90;;;23.40;56.30;;;;;;4381424;32;20089;-74
2021/09/02 10:02:48;;;;;;;7.22;4.93;;;23.30;56.40;;;;;;4368704;32;20065;-73
2021/09/02 10:05:15;;;;;;;7.90;5.10;;;23.40;56.50;;;;;;4367473;32;20714;-75
2021/09/02 10:07:45;;;;;;;8.05;4.78;;;23.30;57.00;;;;;;4356242;32;20077;-73
2021/09/02 10:10:16;;;;;;;7.12;4.97;;;23.40;57.20;;;;;;4377631;32;20077;-75
2021/09/02 10:12:43;;;;;;;8.43;4.68;;;23.40;57.50;;;;;;4381636;32;20081;-74
2021/09/02 10:15:12;;;;;;;6.87;4.65;;;23.10;59.40;;;;;;4365779;32;20058;-69
2021/09/02 10:17:40;;;;;;;7.25;4.82;;;22.90;61.60;;;;;;4373199;32;20185;-71
2021/09/02 10:20:15;;;;;;;9.02;5.15;;;22.80;64.10;;;;;;4393316;32;20117;-69
2021/09/02 10:22:43;;;;;;;7.47;5.25;;;22.70;70.50;;;;;;4381422;32;20077;-70
2021/09/02 10:25:34;;;;;;;8.55;5.72;;;22.40;78.30;;;;;;4356433;32;20717;-69
2021/09/02 10:28:16;;;;;;;8.73;5.30;;;22.20;84.50;;;;;;4394078;32;20094;-70
2021/09/02 10:30:46;;;;;;;8.95;5.45;;;22.00;91.40;;;;;;4386935;32;21439;-74
2021/09/02 10:33:44;;;;;;;8.38;5.28;;;21.90;92.80;;;;;;4360053;32;20117;-76
2021/09/02 10:36:10;;;;;;;10.05;5.25;;;21.70;95.70;;;;;;4386847;32;20178;-70
2021/09/02 10:38:50;;;;;;;8.32;6.12;;;21.70;98.80;;;;;;4388119;32;20530;-73
2021/09/02 10:41:43;;;;;;;12.20;6.85;;;21.60;99.80;;;;;;4390115;32;20480;-75
2021/09/02 10:44:11;;;;;;;8.48;5.07;;;21.70;99.90;;;;;;4400147;32;20062;-77
2021/09/02 10:46:47;;;;;;;7.65;5.60;;;21.60;99.90;;;;;;4364274;32;20116;-72
2021/09/02 10:49:26;;;;;;;7.30;5.22;;;21.40;99.90;;;;;;4390088;32;20117;-71
2021/09/02 10:52:04;;;;;;;7.68;5.50;;;21.60;99.90;;;;;;4398504;32;20138;-68
2021/09/02 10:54:39;;;;;;;6.68;4.70;;;21.50;99.90;;;;;;4396528;32;20066;-74
2021/09/02 10:57:11;;;;;;;6.80;4.65;;;21.30;99.90;;;;;;4375766;32;20112;-70
2021/09/02 10:59:45;;;;;;;9.25;5.10;;;21.30;99.90;;;;;;4357972;32;20066;-68
2021/09/02 11:02:31;;;;;;;7.70;4.80;;;21.20;99.80;;;;;;4386078;32;20127;-69
2021/09/02 11:05:01;;;;;;;7.25;4.50;;;21.10;96.30;;;;;;4385850;32;20080;-72
2021/09/02 11:07:46;;;;;;;7.45;5.30;;;21.00;97.60;;;;;;4373096;32;20181;-74
2021/09/02 11:11:18;;;;;;;7.57;5.57;;;21.20;99.30;;;;;;3807559;37;20267;-80
2021/09/02 11:13:50;;;;;;;7.22;5.37;;;21.10;99.90;;;;;;4349414;32;20151;-78
2021/09/02 11:16:21;;;;;;;8.05;5.57;;;21.00;99.90;;;;;;4359979;32;20570;-78
2021/09/02 11:18:53;;;;;;;8.65;5.47;;;21.10;99.90;;;;;;4364550;32;20093;-79
2021/09/02 11:21:28;;;;;;;8.77;4.93;;;20.80;99.90;;;;;;4360893;32;20158;-70
2021/09/02 11:24:00;;;;;;;8.63;5.70;;;20.70;99.90;;;;;;4349257;32;20147;-74
2021/09/02 11:26:39;;;;;;;9.27;5.35;;;20.70;99.90;;;;;;4353107;32;20133;-75
2021/09/02 11:29:07;;;;;;;8.75;5.60;;;20.60;99.90;;;;;;4334704;32;20163;-73
2021/09/02 11:31:33;;;;;;;8.77;5.03;;;20.70;99.90;;;;;;4359589;32;20070;-75
2021/09/02 11:34:00;;;;;;;7.00;5.15;;;20.50;99.90;;;;;;4339359;32;20098;-73
2021/09/02 11:36:26;;;;;;;10.57;5.37;;;20.60;99.90;;;;;;4361331;32;20142;-73
2021/09/02 11:39:07;;;;;;;7.37;4.55;;;20.70;99.90;;;;;;4368402;32;20102;-77
2021/09/02 11:41:34;;;;;;;9.55;5.22;;;20.70;99.90;;;;;;4335068;32;20070;-77
2021/09/02 11:44:00;;;;;;;8.32;5.85;;;20.70;99.90;;;;;;4359045;32;20098;-75
2021/09/02 11:46:27;;;;;;;5.97;4.30;;;20.50;99.90;;;;;;4360300;32;20101;-75
2021/09/02 11:48:58;;;;;;;6.72;4.90;;;20.50;99.90;;;;;;4347585;32;20513;-75
2021/09/02 11:51:31;;;;;;;8.73;5.30;;;20.50;99.90;;;;;;4342976;32;20146;-73
2021/09/02 11:54:09;;;;;;;6.60;5.12;;;20.50;99.90;;;;;;4333406;32;20066;-74
2021/09/02 11:56:37;;;;;;;7.72;5.45;;;20.70;99.90;;;;;;4356239;32;20093;-75
2021/09/02 11:59:06;;;;;;;7.53;5.57;;;20.60;99.90;;;;;;4353335;32;20596;-73
2021/09/02 12:01:32;;;;;;;10.98;5.47;;;20.90;99.90;;;;;;4335525;32;20121;-73
2021/09/02 12:03:58;;;;;;;7.60;5.32;;;20.90;99.90;;;;;;4349388;32;20090;-71
2021/09/02 12:06:29;;;;;;;9.50;5.70;;;20.90;99.90;;;;;;4335403;32;20440;-75
2021/09/02 12:09:00;;;;;;;8.63;5.32;;;21.10;99.90;;;;;;4334355;32;20086;-77
2021/09/02 12:11:27;;;;;;;8.57;5.65;;;20.90;99.90;;;;;;4346823;32;20112;-79
2021/09/02 12:13:55;;;;;;;9.75;6.03;;;20.50;99.90;;;;;;4361075;32;20109;-74
2021/09/02 12:16:24;;;;;;;10.02;6.10;;;20.40;99.90;;;;;;4337183;32;20075;-75
2021/09/02 12:18:59;;;;;;;8.80;6.20;;;20.30;99.90;;;;;;4343578;32;20172;-76
2021/09/02 12:21:34;;;;;;;7.45;5.50;;;20.70;99.90;;;;;;4325610;32;20110;-74
2021/09/02 12:24:10;;;;;;;9.75;5.93;;;20.80;99.90;;;;;;4362636;32;20066;-76
2021/09/02 12:26:48;;;;;;;8.18;6.22;;;20.90;99.90;;;;;;4336514;32;20073;-76
2021/09/02 12:29:17;;;;;;;8.50;6.03;;;20.60;99.90;;;;;;4327157;32;20114;-76
2021/09/02 12:31:44;;;;;;;9.63;6.10;;;20.80;99.90;;;;;;4341267;32;20067;-72
2021/09/02 12:34:22;;;;;;;9.02;5.93;;;20.60;99.90;;;;;;4332897;32;20063;-80
2021/09/02 12:37:06;;;;;;;8.10;6.07;;;20.70;99.90;;;;;;4326224;32;20214;-79
2021/09/02 12:40:01;;;;;;;10.38;6.43;;;20.70;99.90;;;;;;4326414;33;20089;-71
2021/09/02 12:42:29;;;;;;;10.48;6.10;;;20.80;99.90;;;;;;4324015;32;20135;-79
2021/09/02 12:45:18;;;;;;;11.07;6.25;;;20.70;99.90;;;;;;4327252;32;20071;-74
2021/09/02 12:47:47;;;;;;;7.18;5.70;;;21.00;99.90;;;;;;4334365;32;20455;-76